createdAt,value
2022-08-21T00:01:12.085Z,16.17
2022-08-21T00:03:42.472Z,12.50
2022-08-21T00:06:13.994Z,15.02
2022-08-21T00:08:44.129Z,9.55
2022-08-21T00:11:15.855Z,11.52
2022-08-21T00:13:46.355Z,11.82
2022-08-21T00:16:16.556Z,11.82
2022-08-21T00:18:46.956Z,10.43
2022-08-21T00:21:17.572Z,9.93
2022-08-21T00:23:47.460Z,38.55
2022-08-21T00:26:18.786Z,15.00
2022-08-21T00:28:50.035Z,18.50
2022-08-21T00:31:20.077Z,12.93
2022-08-21T00:33:50.067Z,15.80
2022-08-21T00:36:19.953Z,11.00
2022-08-21T00:38:51.080Z,14.68
2022-08-21T00:41:37.290Z,15.85
2022-08-21T00:44:11.387Z,13.52
2022-08-21T00:46:42.650Z,12.27
2022-08-21T00:49:14.234Z,15.95
2022-08-21T00:51:50.827Z,14.68
2022-08-21T00:54:22.678Z,10.23
2022-08-21T00:56:59.537Z,12.07
2022-08-21T00:59:36.724Z,11.40
2022-08-21T01:02:09.061Z,13.65
2022-08-21T01:04:39.640Z,12.27
2022-08-21T01:07:09.916Z,11.93
2022-08-21T01:09:39.872Z,10.75
2022-08-21T01:12:13.193Z,11.80
2022-08-21T01:14:44.913Z,9.18
2022-08-21T01:17:16.632Z,14.57
2022-08-21T01:19:46.517Z,10.82
2022-08-21T01:22:17.828Z,11.45
2022-08-21T01:24:47.685Z,14.43
2022-08-21T01:27:35.746Z,15.55
2022-08-21T01:30:12.259Z,12.13
2022-08-21T01:32:42.655Z,12.73
2022-08-21T01:35:14.173Z,12.15
2022-08-21T01:37:46.195Z,11.40
2022-08-21T01:40:18.063Z,12.32
2022-08-21T01:42:49.626Z,14.18
2022-08-21T01:45:20.139Z,13.40
2022-08-21T01:47:49.941Z,14.73
2022-08-21T01:50:22.297Z,10.70
2022-08-21T01:52:54.113Z,10.02
2022-08-21T01:55:24.869Z,11.13
2022-08-21T01:57:54.795Z,13.82
2022-08-21T02:00:25.543Z,13.25
2022-08-21T02:02:55.678Z,11.95
2022-08-21T02:05:25.541Z,11.00
2022-08-21T02:07:57.674Z,11.63
2022-08-21T02:10:30.174Z,11.88
2022-08-21T02:13:01.971Z,14.98
2022-08-21T02:15:33.447Z,13.40
2022-08-21T02:18:07.367Z,10.52
2022-08-21T02:20:40.763Z,15.25
2022-08-21T02:23:13.536Z,13.23
2022-08-21T02:25:43.664Z,12.60
2022-08-21T02:28:15.449Z,16.77
2022-08-21T02:30:47.718Z,16.42
2022-08-21T02:33:19.100Z,14.65
2022-08-21T02:35:50.115Z,17.58
2022-08-21T02:38:25.111Z,12.40
2022-08-21T02:40:56.254Z,16.52
2022-08-21T02:43:28.415Z,17.02
2022-08-21T02:46:00.318Z,19.67
2022-08-21T02:48:32.880Z,15.32
2022-08-21T02:51:07.560Z,12.95
2022-08-21T02:53:39.273Z,16.25
2022-08-21T02:56:13.248Z,16.00
2022-08-21T02:58:45.111Z,14.55
2022-08-21T03:01:15.644Z,12.48
2022-08-21T03:03:47.311Z,15.18
2022-08-21T03:06:19.082Z,14.60
2022-08-21T03:08:50.736Z,17.67
2022-08-21T03:11:21.819Z,13.35
2022-08-21T03:13:52.475Z,12.23
2022-08-21T03:16:22.963Z,21.30
2022-08-21T03:18:54.133Z,15.95
2022-08-21T03:21:24.820Z,13.45
2022-08-21T03:23:56.625Z,10.35
2022-08-21T03:26:28.060Z,13.48
2022-08-21T03:28:58.771Z,14.07
2022-08-21T03:31:31.804Z,20.77
2022-08-21T03:34:01.956Z,13.20
2022-08-21T03:36:32.114Z,12.85
2022-08-21T03:39:03.628Z,12.48
2022-08-21T03:41:33.640Z,12.68
2022-08-21T03:44:03.596Z,10.65
2022-08-21T03:46:33.429Z,12.63
2022-08-21T03:49:03.263Z,14.40
2022-08-21T03:51:34.663Z,13.18
2022-08-21T03:54:06.110Z,14.88
2022-08-21T03:56:36.115Z,11.38
2022-08-21T03:59:06.153Z,22.90
2022-08-21T04:01:37.142Z,19.58
2022-08-21T04:04:07.377Z,23.23
2022-08-21T04:06:37.977Z,18.15
2022-08-21T04:09:09.283Z,23.08
2022-08-21T04:11:39.751Z,15.55
2022-08-21T04:14:10.115Z,13.43
2022-08-21T04:16:40.640Z,27.00
2022-08-21T04:19:11.290Z,16.00
2022-08-21T04:21:41.810Z,20.33
2022-08-21T04:24:15.304Z,18.13
2022-08-21T04:26:45.280Z,19.38
2022-08-21T04:29:15.175Z,23.98
2022-08-21T04:31:45.657Z,30.08
2022-08-21T04:34:15.638Z,32.03
2022-08-21T04:36:45.559Z,26.17
2022-08-21T04:39:16.832Z,18.98
2022-08-21T04:41:48.113Z,21.63
2022-08-21T04:44:17.997Z,24.63
2022-08-21T04:46:48.184Z,30.23
2022-08-21T04:49:18.383Z,26.38
2022-08-21T04:52:04.595Z,19.30
2022-08-21T04:54:35.876Z,23.30
2022-08-21T04:57:10.467Z,28.25
2022-08-21T04:59:43.092Z,27.55
2022-08-21T05:02:14.879Z,26.75
2022-08-21T05:04:50.713Z,21.60
2022-08-21T05:07:42.136Z,25.58
2022-08-21T05:10:15.305Z,23.15
2022-08-21T05:12:47.019Z,22.77
2022-08-21T05:15:18.224Z,22.27
2022-08-21T05:17:52.529Z,23.42
2022-08-21T05:20:30.025Z,30.63
2022-08-21T05:23:01.018Z,28.23
2022-08-21T05:25:32.486Z,27.02
2022-08-21T05:28:05.009Z,23.27
2022-08-21T05:30:36.235Z,28.00
2022-08-21T05:33:08.097Z,23.65
2022-08-21T05:35:39.602Z,21.98
2022-08-21T05:38:18.317Z,27.27
2022-08-21T05:40:50.276Z,21.08
2022-08-21T05:43:20.133Z,17.30
2022-08-21T05:45:50.068Z,19.65
2022-08-21T05:48:22.385Z,17.80
2022-08-21T05:50:54.232Z,17.70
2022-08-21T05:53:26.226Z,23.70
2022-08-21T05:55:58.376Z,16.38
2022-08-21T05:58:28.362Z,20.15
2022-08-21T06:00:59.911Z,20.08
2022-08-21T06:03:32.080Z,21.73
2022-08-21T06:06:03.341Z,18.17
2022-08-21T06:08:33.314Z,19.83
2022-08-21T06:11:06.927Z,16.42
2022-08-21T06:13:37.900Z,18.80
2022-08-21T06:16:10.979Z,14.95
2022-08-21T06:18:41.687Z,22.55
2022-08-21T06:21:12.438Z,17.48
2022-08-21T06:23:43.527Z,21.02
2022-08-21T06:26:16.072Z,17.42
2022-08-21T06:28:46.084Z,17.70
2022-08-21T06:31:18.214Z,19.55
2022-08-21T06:33:48.191Z,15.90
2022-08-21T06:36:18.541Z,20.25
2022-08-21T06:38:51.050Z,19.85
2022-08-21T06:41:24.046Z,16.83
2022-08-21T06:43:54.504Z,18.65
2022-08-21T06:46:25.089Z,16.83
2022-08-21T06:48:55.470Z,19.40
2022-08-21T06:51:26.480Z,15.85
2022-08-21T06:53:58.842Z,16.02
2022-08-21T06:56:30.921Z,17.95
2022-08-21T07:01:33.074Z,18.15
2022-08-21T07:04:03.433Z,20.63
2022-08-21T07:06:34.091Z,17.92
2022-08-21T07:09:06.115Z,16.20
2022-08-21T07:11:42.466Z,21.38
2022-08-21T07:14:20.477Z,22.13
2022-08-21T07:16:52.405Z,21.77
2022-08-21T07:19:22.971Z,19.92
2022-08-21T07:21:53.388Z,22.73
2022-08-21T07:24:24.066Z,20.55
2022-08-21T07:26:55.670Z,22.35
2022-08-21T07:29:25.490Z,20.48
2022-08-21T07:31:55.364Z,25.08
2022-08-21T07:34:25.349Z,23.58
2022-08-21T07:36:55.247Z,22.85
2022-08-21T07:39:25.293Z,23.77
2022-08-21T07:41:56.624Z,21.52
2022-08-21T07:44:26.601Z,17.15
2022-08-21T07:46:56.645Z,18.25
2022-08-21T07:49:26.596Z,18.48
2022-08-21T07:51:57.568Z,21.70
2022-08-21T07:54:33.564Z,23.02
2022-08-21T07:57:06.520Z,21.20
2022-08-21T07:59:36.563Z,17.20
2022-08-21T08:02:06.501Z,19.38
2022-08-21T08:04:36.465Z,24.02
2022-08-21T08:07:06.352Z,23.02
2022-08-21T08:09:37.217Z,18.55
2022-08-21T08:12:09.548Z,18.80
2022-08-21T08:14:39.780Z,19.15
2022-08-21T08:17:09.701Z,20.52
2022-08-21T08:19:39.887Z,25.23
2022-08-21T08:22:15.667Z,17.05
2022-08-21T08:24:45.460Z,16.08
2022-08-21T08:27:17.399Z,16.77
2022-08-21T08:29:48.344Z,21.67
2022-08-21T08:32:18.263Z,16.33
2022-08-21T08:34:49.747Z,21.80
2022-08-21T08:37:21.231Z,15.90
2022-08-21T08:39:53.995Z,13.30
2022-08-21T08:42:32.970Z,19.52
2022-08-21T08:45:08.763Z,16.67
2022-08-21T08:47:42.159Z,13.82
2022-08-21T08:52:50.075Z,16.40
2022-08-21T08:55:27.136Z,13.38
2022-08-21T08:57:59.332Z,10.70
2022-08-21T09:00:29.443Z,13.23
2022-08-21T09:03:01.888Z,15.88
2022-08-21T09:05:39.500Z,10.10
2022-08-21T09:08:22.867Z,12.45
2022-08-21T09:11:03.825Z,12.25
2022-08-21T09:13:47.265Z,13.45
2022-08-21T09:16:26.363Z,11.30
2022-08-21T09:19:05.059Z,12.88
2022-08-21T09:21:52.159Z,16.00
2022-08-21T09:24:32.512Z,15.15
2022-08-21T09:27:08.659Z,12.27
2022-08-21T09:29:42.623Z,13.63
2022-08-21T09:32:18.812Z,14.77
2022-08-21T09:35:00.747Z,14.65
2022-08-21T09:37:32.790Z,12.73
2022-08-21T09:40:16.154Z,10.38
2022-08-21T09:42:57.923Z,15.65
2022-08-21T09:45:33.813Z,12.45
2022-08-21T09:48:11.947Z,13.80
2022-08-21T09:50:43.285Z,15.68
2022-08-21T09:53:21.492Z,17.83
2022-08-21T09:56:12.504Z,15.02
2022-08-21T09:58:45.587Z,16.33
2022-08-21T10:04:05.057Z,10.85
2022-08-21T10:06:36.959Z,10.25
2022-08-21T10:09:13.580Z,11.45
2022-08-21T10:11:55.044Z,12.68
2022-08-21T10:14:40.215Z,12.95
2022-08-21T10:17:22.731Z,12.70
2022-08-21T10:20:01.282Z,11.85
2022-08-21T10:22:40.605Z,10.20
2022-08-21T10:25:20.022Z,10.52
2022-08-21T10:27:59.259Z,11.75
2022-08-21T10:30:41.016Z,13.48
2022-08-21T10:33:30.685Z,15.50
2022-08-21T10:36:09.104Z,12.55
2022-08-21T10:39:17.778Z,13.35
2022-08-21T10:42:08.539Z,13.13
2022-08-21T10:44:47.449Z,13.73
2022-08-21T10:47:22.691Z,12.85
2022-08-21T10:50:05.309Z,10.38
2022-08-21T10:52:53.631Z,11.93
2022-08-21T10:55:27.894Z,15.70
2022-08-21T10:58:00.792Z,14.07
2022-08-21T11:00:37.596Z,11.37
2022-08-21T11:03:13.100Z,13.90
2022-08-21T11:05:51.139Z,12.65
2022-08-21T11:08:32.328Z,14.95
2022-08-21T11:11:08.823Z,13.98
2022-08-21T11:13:43.652Z,14.88
2022-08-21T11:16:23.948Z,15.82
2022-08-21T11:19:02.466Z,17.95
2022-08-21T11:21:40.631Z,13.90
2022-08-21T11:24:29.085Z,19.63
2022-08-21T11:27:05.590Z,16.45
2022-08-21T11:29:41.107Z,17.75
2022-08-21T11:32:41.287Z,17.77
2022-08-21T11:35:26.029Z,16.13
2022-08-21T11:38:14.498Z,14.73
2022-08-21T11:41:01.426Z,18.08
2022-08-21T11:43:39.797Z,16.48
2022-08-21T11:46:19.836Z,15.90
2022-08-21T11:49:08.738Z,19.88
2022-08-21T11:51:44.871Z,18.58
2022-08-21T11:54:26.887Z,17.60
2022-08-21T11:57:03.888Z,27.52
2022-08-21T11:59:48.186Z,34.47
2022-08-21T12:02:22.159Z,21.38
2022-08-21T12:04:57.610Z,18.98
2022-08-21T12:07:37.251Z,17.85
2022-08-21T12:10:12.813Z,20.00
2022-08-21T12:12:46.123Z,19.30
2022-08-21T12:15:29.911Z,21.95
2022-08-21T12:18:06.627Z,17.48
2022-08-21T12:20:50.050Z,20.05
2022-08-21T12:23:29.607Z,29.27
2022-08-21T12:26:29.711Z,24.25
2022-08-21T12:29:13.958Z,21.23
2022-08-21T12:31:56.456Z,20.38
2022-08-21T12:34:34.892Z,23.17
2022-08-21T12:37:08.794Z,26.38
2022-08-21T12:39:48.375Z,22.38
2022-08-21T12:42:23.172Z,22.40
2022-08-21T12:45:04.867Z,27.70
2022-08-21T12:47:48.351Z,20.35
2022-08-21T12:50:22.441Z,21.15
2022-08-21T12:52:59.334Z,15.73
2022-08-21T12:55:31.650Z,14.90
2022-08-21T12:58:02.447Z,15.27
2022-08-21T13:00:33.728Z,18.92
2022-08-21T13:03:03.915Z,17.27
2022-08-21T13:05:37.775Z,17.17
2022-08-21T13:08:10.256Z,18.67
2022-08-21T13:10:42.763Z,22.90
2022-08-21T13:13:25.036Z,17.80
2022-08-21T13:16:02.590Z,18.83
2022-08-21T13:18:35.917Z,20.70
2022-08-21T13:21:08.581Z,20.17
2022-08-21T13:23:38.515Z,19.57
2022-08-21T13:26:18.615Z,20.60
2022-08-21T13:28:50.524Z,18.88
2022-08-21T13:31:26.992Z,20.95
2022-08-21T13:33:57.674Z,17.55
2022-08-21T13:36:33.421Z,20.40
2022-08-21T13:39:05.169Z,18.25
2022-08-21T13:41:37.921Z,16.15
2022-08-21T13:44:20.631Z,18.25
2022-08-21T13:46:52.698Z,17.25
2022-08-21T13:49:28.836Z,19.83
2022-08-21T13:51:58.804Z,16.77
2022-08-21T13:54:35.809Z,19.77
2022-08-21T13:57:06.224Z,18.83
2022-08-21T13:59:38.377Z,19.67
2022-08-21T14:02:16.119Z,15.82
2022-08-21T14:04:54.124Z,22.13
2022-08-21T14:07:29.740Z,16.88
2022-08-21T14:10:03.339Z,21.67
2022-08-21T14:12:40.250Z,17.58
2022-08-21T14:15:14.628Z,21.25
2022-08-21T14:17:47.318Z,20.35
2022-08-21T14:20:29.926Z,19.42
2022-08-21T14:23:00.448Z,17.45
2022-08-21T14:25:40.812Z,18.00
2022-08-21T14:28:22.055Z,16.13
2022-08-21T14:31:14.556Z,19.70
2022-08-21T14:33:46.541Z,16.95
2022-08-21T14:36:16.776Z,17.77
2022-08-21T14:38:47.014Z,19.48
2022-08-21T14:41:20.537Z,15.63
2022-08-21T14:43:55.776Z,15.60
2022-08-21T14:46:36.496Z,17.70
2022-08-21T14:49:17.297Z,16.63
2022-08-21T14:51:54.417Z,16.77
2022-08-21T14:54:29.587Z,19.42
2022-08-21T14:57:05.696Z,15.68
2022-08-21T14:59:36.930Z,15.30
2022-08-21T15:02:08.083Z,17.38
2022-08-21T15:04:39.796Z,17.27
2022-08-21T15:07:09.916Z,18.25
2022-08-21T15:09:40.001Z,18.63
2022-08-21T15:12:10.931Z,18.92
2022-08-21T15:14:44.156Z,18.17
2022-08-21T15:17:14.282Z,19.80
2022-08-21T15:19:45.600Z,18.95
2022-08-21T15:22:19.055Z,21.85
2022-08-21T15:24:56.975Z,20.45
2022-08-21T15:27:27.094Z,23.23
2022-08-21T15:29:57.648Z,20.58
2022-08-21T15:32:31.185Z,21.00
2022-08-21T15:35:02.561Z,23.92
2022-08-21T15:37:33.407Z,22.73
2022-08-21T15:40:03.540Z,18.35
2022-08-21T15:42:34.084Z,23.88
2022-08-21T15:45:05.525Z,20.08
2022-08-21T15:47:38.968Z,18.80
2022-08-21T15:50:12.499Z,25.30
2022-08-21T15:55:13.461Z,16.73
2022-08-21T15:57:58.211Z,19.98
2022-08-21T16:00:29.516Z,16.75
2022-08-21T16:03:01.289Z,24.42
2022-08-21T16:05:33.602Z,22.52
2022-08-21T16:08:03.673Z,14.80
2022-08-21T16:10:33.833Z,18.52
2022-08-21T16:13:07.184Z,16.92
2022-08-21T16:15:37.802Z,20.23
2022-08-21T16:18:07.722Z,20.08
2022-08-21T16:20:39.682Z,16.40
2022-08-21T16:23:09.792Z,14.82
2022-08-21T16:25:41.979Z,17.83
2022-08-21T16:28:19.221Z,19.80
2022-08-21T16:30:51.838Z,14.38
2022-08-21T16:33:26.636Z,17.45
2022-08-21T16:35:58.205Z,15.00
2022-08-21T16:38:29.189Z,20.65
2022-08-21T16:40:59.581Z,17.38
2022-08-21T16:43:31.199Z,20.42
2022-08-21T16:46:04.078Z,19.15
2022-08-21T16:48:34.018Z,21.13
2022-08-21T16:51:06.181Z,18.77
2022-08-21T16:53:36.401Z,19.33
2022-08-21T16:56:08.240Z,17.02
2022-08-21T16:58:41.287Z,21.35
2022-08-21T17:01:16.156Z,25.08
2022-08-21T17:03:48.704Z,16.25
2022-08-21T17:06:21.111Z,23.55
2022-08-21T17:08:52.662Z,22.80
2022-08-21T17:11:37.524Z,21.75
2022-08-21T17:14:12.189Z,16.48
2022-08-21T17:19:16.031Z,20.52
2022-08-21T17:21:47.503Z,20.35
2022-08-21T17:24:17.633Z,20.92
2022-08-21T17:26:49.140Z,19.67
2022-08-21T17:29:22.063Z,21.85
2022-08-21T17:31:51.939Z,20.27
2022-08-21T17:34:22.201Z,22.60
2022-08-21T17:36:54.126Z,26.98
2022-08-21T17:39:26.555Z,23.02
2022-08-21T17:42:00.181Z,19.90
2022-08-21T17:44:30.380Z,20.17
2022-08-21T17:47:01.095Z,24.00
2022-08-21T17:49:31.037Z,19.08
2022-08-21T17:52:02.424Z,22.15
2022-08-21T17:54:32.841Z,22.40
2022-08-21T17:57:03.118Z,20.35
2022-08-21T17:59:34.185Z,19.25
2022-08-21T18:02:09.739Z,21.73
2022-08-21T18:04:50.638Z,22.13
2022-08-21T18:07:31.847Z,19.70
2022-08-21T18:10:03.648Z,23.60
2022-08-21T18:12:34.321Z,21.77
2022-08-21T18:15:08.194Z,22.70
2022-08-21T18:17:38.841Z,23.90
2022-08-21T18:20:10.183Z,25.35
2022-08-21T18:22:41.772Z,23.55
2022-08-21T18:25:12.342Z,22.33
2022-08-21T18:27:45.737Z,21.23
2022-08-21T18:30:18.593Z,23.65
2022-08-21T18:32:49.703Z,22.67
2022-08-21T18:35:19.782Z,24.98
2022-08-21T18:37:51.105Z,21.20
2022-08-21T18:40:21.541Z,25.95
2022-08-21T18:42:55.535Z,21.98
2022-08-21T18:45:26.465Z,21.48
2022-08-21T18:47:58.266Z,23.00
2022-08-21T18:50:29.843Z,23.33
2022-08-21T18:53:01.178Z,19.70
2022-08-21T18:55:32.702Z,20.98
2022-08-21T18:58:03.314Z,20.92
2022-08-21T19:00:44.307Z,23.13
2022-08-21T19:03:15.396Z,20.13
2022-08-21T19:05:52.419Z,21.58
2022-08-21T19:08:27.291Z,21.15
2022-08-21T19:11:02.414Z,24.40
2022-08-21T19:13:32.912Z,22.20
2022-08-21T19:16:05.413Z,19.30
2022-08-21T19:18:42.195Z,21.30
2022-08-21T19:21:12.703Z,18.30
2022-08-21T19:23:52.661Z,19.83
2022-08-21T19:26:24.716Z,23.27
2022-08-21T19:28:59.602Z,19.15
2022-08-21T19:31:32.668Z,19.98
2022-08-21T19:34:07.051Z,21.05
2022-08-21T19:36:37.942Z,20.60
2022-08-21T19:39:11.012Z,18.95
2022-08-21T19:41:45.745Z,22.05
2022-08-21T19:44:23.519Z,21.60
2022-08-21T19:46:54.963Z,21.42
2022-08-21T19:49:33.247Z,19.23
2022-08-21T19:52:12.872Z,20.60
2022-08-21T19:54:45.485Z,23.92
2022-08-21T19:57:15.927Z,19.83
2022-08-21T19:59:47.341Z,26.05
2022-08-21T20:02:19.798Z,22.17
2022-08-21T20:04:54.096Z,22.25
2022-08-21T20:07:26.855Z,22.33
2022-08-21T20:09:58.548Z,19.75
2022-08-21T20:12:29.044Z,20.05
2022-08-21T20:15:00.176Z,22.73
2022-08-21T20:17:30.111Z,23.45
2022-08-21T20:20:00.261Z,23.70
2022-08-21T20:22:31.288Z,23.45
2022-08-21T20:25:03.811Z,21.00
2022-08-21T20:27:36.396Z,19.70
2022-08-21T20:30:12.727Z,20.58
2022-08-21T20:32:43.729Z,17.63
2022-08-21T20:35:13.788Z,20.10
2022-08-21T20:37:43.701Z,22.58
2022-08-21T20:40:16.708Z,24.00
2022-08-21T20:42:53.853Z,18.95
2022-08-21T20:45:26.152Z,22.23
2022-08-21T20:48:02.746Z,19.50
2022-08-21T20:50:38.332Z,22.63
2022-08-21T20:53:15.387Z,23.58
2022-08-21T20:55:50.279Z,20.10
2022-08-21T20:58:30.195Z,25.27
2022-08-21T21:01:04.417Z,21.83
2022-08-21T21:03:39.197Z,18.83
2022-08-21T21:06:17.461Z,18.98
2022-08-21T21:08:51.480Z,21.77
2022-08-21T21:11:26.217Z,16.10
2022-08-21T21:14:01.481Z,20.30
2022-08-21T21:16:37.485Z,21.55
2022-08-21T21:19:12.628Z,18.42
2022-08-21T21:21:51.497Z,16.92
2022-08-21T21:24:51.315Z,13.32
2022-08-21T21:27:29.540Z,19.58
2022-08-21T21:30:12.187Z,14.20
2022-08-21T21:32:45.401Z,15.43
2022-08-21T21:35:22.354Z,15.77
2022-08-21T21:38:10.931Z,16.73
2022-08-21T21:40:53.952Z,14.13
2022-08-21T21:43:55.946Z,14.35
2022-08-21T21:46:35.015Z,15.88
2022-08-21T21:49:19.454Z,13.98
2022-08-21T21:52:00.559Z,13.13
2022-08-21T21:54:54.916Z,15.75
2022-08-21T21:57:39.643Z,14.68
2022-08-21T22:00:17.394Z,16.80
2022-08-21T22:03:00.154Z,15.90
2022-08-21T22:05:51.012Z,16.30
2022-08-21T22:08:31.925Z,18.55
2022-08-21T22:11:08.682Z,14.07
2022-08-21T22:13:46.544Z,14.05
2022-08-21T22:16:19.598Z,15.63
2022-08-21T22:19:03.078Z,15.05
2022-08-21T22:21:39.961Z,13.07
2022-08-21T22:24:17.839Z,14.23
2022-08-21T22:26:51.879Z,13.48
2022-08-21T22:32:06.823Z,14.68
2022-08-21T22:34:37.146Z,13.38
2022-08-21T22:37:11.872Z,13.60
2022-08-21T22:39:46.055Z,12.07
2022-08-21T22:45:21.948Z,14.13
2022-08-21T22:47:54.595Z,13.38
2022-08-21T22:50:32.503Z,13.43
2022-08-21T22:53:06.863Z,14.23
2022-08-21T22:55:43.788Z,14.85
2022-08-21T22:58:20.431Z,11.98
2022-08-21T23:00:56.731Z,15.70
2022-08-21T23:03:33.719Z,17.00
2022-08-21T23:06:12.695Z,17.42
2022-08-21T23:11:40.665Z,14.32
2022-08-21T23:14:14.711Z,11.55
2022-08-21T23:16:57.525Z,16.45
2022-08-21T23:19:39.237Z,16.02
2022-08-21T23:22:28.377Z,20.38
2022-08-21T23:25:12.596Z,13.63
2022-08-21T23:27:56.174Z,14.75
2022-08-21T23:30:40.789Z,18.90
2022-08-21T23:33:26.887Z,13.88
2022-08-21T23:36:25.059Z,13.60
2022-08-21T23:39:11.667Z,12.25
2022-08-21T23:41:47.024Z,13.85
2022-08-21T23:44:33.462Z,14.98
2022-08-21T23:47:15.421Z,12.30
2022-08-21T23:49:54.010Z,17.13
2022-08-21T23:52:37.550Z,14.05
2022-08-21T23:55:44.145Z,17.92
2022-08-21T23:58:30.525Z,16.08
